Time;durP1;ratioP1;P1;durP2;ratioP2;P2;SDS_P1;SDS_P2;PMS_P1;PMS_P2;Temp;Humidity;BMP_temperature;BMP_pressure;BME280_temperature;BME280_humidity;BME280_pressure;Samples;Min_cycle;Max_cycle;Signal;HPM_P1;HPM_P2
2021/09/02 00:00:24;;;;;;;11.02;6.40;;;;;;;14.20;72.02;99146.47;5029916;28;20033;-72
2021/09/02 00:02:49;;;;;;;12.48;7.25;;;;;;;14.20;72.10;99145.66;5031410;28;20023;-73
2021/09/02 00:05:14;;;;;;;11.77;7.15;;;;;;;14.19;72.25;99147.59;5030968;28;20025;-73
2021/09/02 00:07:40;;;;;;;8.93;5.90;;;;;;;14.16;72.03;99150.94;5030740;28;20033;-73
2021/09/02 00:10:05;;;;;;;9.35;6.22;;;;;;;14.13;72.29;99146.03;5030182;28;20037;-72
2021/09/02 00:12:31;;;;;;;10.18;7.07;;;;;;;14.10;72.56;99153.00;5030483;28;20029;-73
2021/09/02 00:14:56;;;;;;;13.05;7.40;;;;;;;14.06;72.47;99151.16;5029030;28;20029;-72
2021/09/02 00:17:21;;;;;;;11.38;7.63;;;;;;;14.06;72.99;99151.97;5030211;28;20473;-72
2021/09/02 00:19:47;;;;;;;11.02;6.03;;;;;;;14.05;73.57;99144.81;5030947;28;20402;-74
2021/09/02 00:22:12;;;;;;;10.70;7.05;;;;;;;14.01;73.24;99146.53;5031548;28;20041;-72
2021/09/02 00:24:38;;;;;;;10.55;6.40;;;;;;;13.97;73.83;99149.09;5032240;28;20025;-73
2021/09/02 00:27:03;;;;;;;10.90;6.78;;;;;;;13.94;73.61;99146.94;5031438;28;20056;-73
2021/09/02 00:29:30;;;;;;;12.50;7.53;;;;;;;13.90;74.10;99154.16;5031964;28;20049;-73
2021/09/02 00:31:55;;;;;;;12.80;7.47;;;;;;;13.85;73.67;99145.97;5031723;28;20037;-73
2021/09/02 00:34:21;;;;;;;11.85;7.25;;;;;;;13.83;74.09;99153.72;5014181;28;20699;-73
2021/09/02 00:36:46;;;;;;;12.68;7.43;;;;;;;13.81;74.35;99155.97;5031997;28;20028;-72
2021/09/02 00:39:11;;;;;;;14.00;7.68;;;;;;;13.72;74.14;99155.81;5012927;28;20478;-72
2021/09/02 00:41:37;;;;;;;10.82;7.55;;;;;;;13.68;74.10;99152.84;5030989;28;20037;-71
2021/09/02 00:44:02;;;;;;;12.55;7.95;;;;;;;13.63;74.15;99161.22;5031018;28;20029;-71
2021/09/02 00:46:28;;;;;;;12.90;7.45;;;;;;;13.60;74.12;99163.72;5031773;28;20466;-71
2021/09/02 00:48:54;;;;;;;13.15;7.30;;;;;;;13.54;74.13;99163.81;5031978;28;20040;-71
2021/09/02 00:51:20;;;;;;;12.20;7.15;;;;;;;13.52;74.10;99160.53;5012593;28;20090;-72
2021/09/02 00:53:49;;;;;;;15.27;7.93;;;;;;;13.48;74.15;99162.22;5030894;28;20614;-72
2021/09/02 00:56:14;;;;;;;14.25;7.72;;;;;;;13.41;74.48;99159.06;5031507;28;20535;-71
2021/09/02 00:58:41;;;;;;;16.25;8.32;;;;;;;13.38;74.58;99159.63;5030791;28;20029;-71
2021/09/02 01:01:07;;;;;;;13.77;7.93;;;;;;;13.34;74.50;99162.13;5031376;28;20037;-72
2021/09/02 01:03:35;;;;;;;14.73;7.85;;;;;;;13.33;74.70;99159.69;5031448;28;20104;-72
2021/09/02 01:06:00;;;;;;;15.43;8.23;;;;;;;13.32;74.83;99152.53;5013887;28;20036;-73
2021/09/02 01:08:26;;;;;;;12.50;7.15;;;;;;;13.28;74.77;99154.25;5013545;28;20018;-73
2021/09/02 01:10:52;;;;;;;14.82;8.10;;;;;;;13.23;75.35;99155.97;5030592;28;20072;-72
2021/09/02 01:13:21;;;;;;;11.52;7.45;;;;;;;13.20;75.04;99155.75;5030171;28;20024;-72
2021/09/02 01:15:46;;;;;;;14.33;8.33;;;;;;;13.18;75.08;99157.97;5031319;28;20122;-73
2021/09/02 01:18:12;;;;;;;14.27;8.10;;;;;;;13.18;75.16;99157.97;5030879;28;20084;-73
2021/09/02 01:20:38;;;;;;;13.50;8.20;;;;;;;13.19;75.07;99154.91;5030367;28;20014;-72
2021/09/02 01:23:04;;;;;;;15.38;8.50;;;;;;;13.19;75.29;99157.66;5030515;28;20029;-73
2021/09/02 01:25:32;;;;;;;13.18;7.38;;;;;;;13.17;75.04;99159.91;5028983;28;20490;-72
2021/09/02 01:28:04;;;;;;;15.40;7.97;;;;;;;13.15;75.37;99155.81;5030966;28;20029;-72
2021/09/02 01:30:31;;;;;;;12.18;7.28;;;;;;;13.12;75.08;99148.94;5028900;28;20030;-71
2021/09/02 01:32:57;;;;;;;12.52;7.30;;;;;;;13.13;75.24;99152.53;5012215;28;20025;-73
2021/09/02 01:35:24;;;;;;;14.38;8.48;;;;;;;13.13;75.30;99155.28;5030690;28;20056;-73
2021/09/02 01:37:58;;;;;;;11.35;7.20;;;;;;;13.12;75.13;99157.19;5027401;28;20537;-73
2021/09/02 01:40:29;;;;;;;12.77;7.78;;;;;;;13.09;75.29;99155.03;5028650;28;20541;-72
2021/09/02 01:42:54;;;;;;;12.52;7.53;;;;;;;13.04;75.20;99155.13;5011135;28;20029;-73
2021/09/02 01:45:20;;;;;;;13.88;7.85;;;;;;;13.05;75.45;99152.06;5030681;28;20393;-72
2021/09/02 01:47:46;;;;;;;12.95;7.35;;;;;;;13.10;75.70;99152.00;5011847;28;20056;-72
2021/09/02 01:50:18;;;;;;;12.40;7.70;;;;;;;13.09;75.35;99150.38;5029551;28;20508;-72
2021/09/02 01:52:44;;;;;;;14.32;7.95;;;;;;;13.12;75.46;99153.66;5029440;28;20034;-73
2021/09/02 01:55:10;;;;;;;14.68;7.60;;;;;;;13.11;75.39;99152.81;5030487;28;20389;-72
2021/09/02 01:57:37;;;;;;;12.68;8.25;;;;;;;13.06;75.26;99159.22;5029467;28;20030;-72
2021/09/02 02:00:05;;;;;;;13.48;8.10;;;;;;;13.04;75.32;99158.69;5030616;28;20037;-72
2021/09/02 02:02:30;;;;;;;13.20;7.85;;;;;;;13.01;75.43;99159.28;5022969;28;20728;-71
2021/09/02 02:04:56;;;;;;;15.35;7.13;;;;;;;12.99;75.43;99166.22;5027845;28;20048;-71
2021/09/02 02:07:21;;;;;;;13.30;8.20;;;;;;;12.93;75.34;99159.94;5027100;28;20198;-70
2021/09/02 02:09:46;;;;;;;12.10;7.30;;;;;;;12.85;75.19;99158.66;5027624;28;20033;-71
2021/09/02 02:12:12;;;;;;;12.93;8.07;;;;;;;12.74;75.73;99165.41;5028606;28;20033;-71
2021/09/02 02:14:37;;;;;;;14.02;8.27;;;;;;;12.70;75.92;99156.06;5028793;28;20029;-71
2021/09/02 02:17:03;;;;;;;14.10;7.90;;;;;;;12.65;75.83;99166.03;5028429;28;20053;-71
2021/09/02 02:19:28;;;;;;;12.15;7.32;;;;;;;12.59;76.23;99160.88;5026373;28;20033;-71
2021/09/02 02:21:54;;;;;;;13.68;7.82;;;;;;;12.59;76.33;99160.88;5027875;28;20029;-72
2021/09/02 02:24:19;;;;;;;14.45;7.97;;;;;;;12.58;76.50;99162.00;5028361;28;20026;-72
2021/09/02 02:26:45;;;;;;;16.33;8.27;;;;;;;12.55;76.22;99155.16;5027888;28;20125;-72
2021/09/02 02:29:10;;;;;;;12.90;7.47;;;;;;;12.57;76.29;99155.69;5030233;28;20057;-72
2021/09/02 02:31:36;;;;;;;12.40;7.55;;;;;;;12.58;76.48;99153.75;5029430;28;20017;-71
2021/09/02 02:34:01;;;;;;;16.52;8.40;;;;;;;12.58;76.72;99153.75;5028625;28;20508;-72
2021/09/02 02:36:26;;;;;;;13.02;7.47;;;;;;;12.55;76.56;99144.16;5030153;28;20108;-71
2021/09/02 02:38:52;;;;;;;10.55;7.05;;;;;;;12.54;76.95;99158.19;5030195;28;20018;-71
2021/09/02 02:41:17;;;;;;;15.60;8.20;;;;;;;12.45;76.91;99139.56;5012022;28;20030;-71
2021/09/02 02:43:43;;;;;;;15.35;8.15;;;;;;;12.45;76.86;99142.31;5029099;28;20036;-72
2021/09/02 02:46:08;;;;;;;15.13;8.27;;;;;;;12.47;76.94;99159.34;5029904;28;20476;-70
2021/09/02 02:48:34;;;;;;;13.43;8.20;;;;;;;12.48;76.75;99144.47;5029029;28;20108;-71
2021/09/02 02:50:59;;;;;;;12.90;8.18;;;;;;;12.47;77.01;99151.09;5028422;28;20021;-72
2021/09/02 02:53:25;;;;;;;10.82;6.85;;;;;;;12.47;77.26;99151.09;5028391;28;20128;-72
2021/09/02 02:55:50;;;;;;;11.60;7.57;;;;;;;12.43;77.23;99149.22;5029901;28;20095;-72
2021/09/02 02:58:15;;;;;;;12.75;7.10;;;;;;;12.40;77.44;99142.41;5028826;28;20412;-71
2021/09/02 03:00:41;;;;;;;13.90;8.38;;;;;;;12.41;77.35;99148.69;5009533;28;20479;-73
2021/09/02 03:03:07;;;;;;;12.57;8.38;;;;;;;12.41;77.84;99137.69;5031085;28;20033;-73
2021/09/02 03:05:32;;;;;;;12.85;8.63;;;;;;;12.42;77.78;99134.69;5033545;28;20417;-73
2021/09/02 03:07:57;;;;;;;13.30;8.15;;;;;;;12.41;78.02;99133.03;5033039;28;20129;-72
2021/09/02 03:10:23;;;;;;;13.25;8.23;;;;;;;12.41;77.91;99134.94;5030793;28;20437;-72
2021/09/02 03:12:48;;;;;;;14.70;8.88;;;;;;;12.39;77.74;99140.75;5031075;28;20064;-73
2021/09/02 03:15:14;;;;;;;15.18;8.20;;;;;;;12.39;78.30;99139.91;5031543;28;20466;-72
2021/09/02 03:17:39;;;;;;;13.20;8.60;;;;;;;12.35;78.17;99142.44;5031836;28;20051;-72
2021/09/02 03:20:06;;;;;;;14.88;8.43;;;;;;;12.37;78.23;99145.72;5031407;28;20355;-72
2021/09/02 03:22:31;;;;;;;12.43;8.93;;;;;;;12.33;78.29;99150.16;5029526;28;20033;-72
2021/09/02 03:24:57;;;;;;;15.15;9.45;;;;;;;12.28;78.01;99145.53;5033456;28;20080;-72
2021/09/02 03:27:22;;;;;;;14.60;10.70;;;;;;;12.28;78.36;99159.28;5033107;28;20041;-71
2021/09/02 03:29:48;;;;;;;14.93;10.05;;;;;;;12.30;78.35;99156.25;5033716;28;20036;-72
2021/09/02 03:32:13;;;;;;;15.25;10.05;;;;;;;12.30;78.12;99159.00;5014396;28;20025;-73
2021/09/02 03:34:38;;;;;;;12.35;8.57;;;;;;;12.29;78.20;99155.41;5032918;28;20036;-72
2021/09/02 03:37:04;;;;;;;14.00;9.38;;;;;;;12.23;78.25;99161.25;5033059;28;20033;-72
2021/09/02 03:39:30;;;;;;;15.30;9.57;;;;;;;12.20;78.55;99149.72;5033076;28;20454;-72
2021/09/02 03:41:55;;;;;;;16.73;10.48;;;;;;;12.16;78.33;99159.66;5032618;28;20034;-72
2021/09/02 03:44:20;;;;;;;17.15;12.27;;;;;;;12.11;78.60;99159.72;5031224;28;20474;-72
2021/09/02 03:46:46;;;;;;;18.80;11.50;;;;;;;12.08;78.73;99157.53;5032514;28;20438;-73
2021/09/02 03:49:11;;;;;;;19.80;12.50;;;;;;;12.05;79.05;99163.63;5032176;28;20099;-71
2021/09/02 03:51:37;;;;;;;18.33;11.63;;;;;;;12.03;78.75;99171.31;5032350;28;20035;-72
2021/09/02 03:54:02;;;;;;;18.65;11.20;;;;;;;12.03;78.74;99185.06;5031495;28;20108;-72
2021/09/02 03:56:27;;;;;;;16.90;11.45;;;;;;;12.01;78.84;99177.13;5030200;28;20056;-72
2021/09/02 03:58:53;;;;;;;19.42;12.15;;;;;;;11.98;79.00;99180.41;5032738;28;20018;-72
2021/09/02 04:01:19;;;;;;;18.40;10.77;;;;;;;11.98;78.84;99179.63;5030002;28;20029;-71
2021/09/02 04:03:44;;;;;;;16.65;9.80;;;;;;;11.97;79.07;99176.03;5014838;28;20108;-71
2021/09/02 04:06:10;;;;;;;19.27;11.63;;;;;;;11.99;79.47;99178.50;5032765;28;20079;-72
2021/09/02 04:08:35;;;;;;;19.42;11.35;;;;;;;11.97;79.04;99178.78;5032423;28;20028;-72
2021/09/02 04:11:01;;;;;;;17.67;11.20;;;;;;;11.97;79.32;99183.47;5031005;28;20103;-72
2021/09/02 04:13:26;;;;;;;19.67;12.13;;;;;;;11.99;79.24;99182.09;5031072;28;20237;-71
2021/09/02 04:15:52;;;;;;;18.58;10.90;;;;;;;12.02;78.95;99188.97;5031622;28;20049;-71
2021/09/02 04:18:17;;;;;;;21.15;12.05;;;;;;;12.03;79.76;99196.91;5032191;28;20021;-71
2021/09/02 04:20:43;;;;;;;21.00;11.85;;;;;;;12.08;79.70;99190.53;5011709;28;20030;-71
2021/09/02 04:23:08;;;;;;;18.77;11.43;;;;;;;12.10;79.28;99190.25;5031084;28;20038;-70
2021/09/02 04:25:34;;;;;;;17.27;11.05;;;;;;;12.13;79.33;99195.19;5032078;28;20083;-71
2021/09/02 04:27:59;;;;;;;16.85;10.65;;;;;;;12.13;79.62;99198.75;5031987;28;20029;-71
2021/09/02 04:30:25;;;;;;;16.63;10.93;;;;;;;12.17;79.62;99199.00;5031456;28;20088;-72
2021/09/02 04:32:50;;;;;;;17.83;10.60;;;;;;;12.18;79.30;99200.66;5031060;28;20406;-72
2021/09/02 04:35:15;;;;;;;17.77;11.13;;;;;;;12.19;79.56;99202.28;5013752;28;20041;-72
2021/09/02 04:37:46;;;;;;;17.90;10.88;;;;;;;12.20;79.80;99201.19;5030275;28;20025;-72
2021/09/02 04:40:13;;;;;;;16.85;10.68;;;;;;;12.19;79.24;99202.28;5030751;28;20033;-72
2021/09/02 04:42:39;;;;;;;17.08;10.63;;;;;;;12.19;79.05;99207.78;5029506;28;20108;-72
2021/09/02 04:45:06;;;;;;;15.23;9.65;;;;;;;12.22;79.38;99215.47;5031296;28;20096;-72
2021/09/02 04:47:31;;;;;;;14.73;9.73;;;;;;;12.20;79.41;99212.19;5030645;28;20543;-73
2021/09/02 04:49:57;;;;;;;21.25;10.32;;;;;;;12.20;79.38;99212.97;5030326;28;20022;-73
2021/09/02 04:52:22;;;;;;;15.57;10.13;;;;;;;12.25;79.31;99217.59;5029639;28;20048;-72
2021/09/02 04:54:48;;;;;;;14.98;9.68;;;;;;;12.27;79.40;99220.09;5030372;28;20147;-72
2021/09/02 04:57:13;;;;;;;15.55;9.98;;;;;;;12.32;79.30;99222.78;5031202;28;20429;-72
2021/09/02 04:59:38;;;;;;;14.77;9.95;;;;;;;12.33;79.47;99219.75;5031479;28;20108;-72
2021/09/02 05:02:04;;;;;;;17.52;10.57;;;;;;;12.39;79.33;99223.28;5030027;28;20025;-72
2021/09/02 05:04:29;;;;;;;14.32;9.63;;;;;;;12.43;79.24;99221.56;5031378;28;20049;-72
2021/09/02 05:06:55;;;;;;;14.30;9.65;;;;;;;12.49;79.41;99227.84;5030721;28;20033;-73
2021/09/02 05:09:20;;;;;;;15.05;9.57;;;;;;;12.50;79.36;99232.25;5030824;28;20021;-72
2021/09/02 05:11:46;;;;;;;16.60;9.68;;;;;;;12.52;79.27;99235.53;5030517;28;20397;-72
2021/09/02 05:14:11;;;;;;;13.43;9.70;;;;;;;12.56;79.11;99233.84;5030202;28;20105;-73
2021/09/02 05:16:37;;;;;;;15.95;10.07;;;;;;;12.58;79.16;99236.28;5031257;28;20041;-73
2021/09/02 05:19:02;;;;;;;15.93;9.43;;;;;;;12.59;79.11;99240.69;5029894;28;20083;-73
2021/09/02 05:21:28;;;;;;;15.27;9.55;;;;;;;12.61;78.97;99239.31;5012461;28;20033;-72
2021/09/02 05:23:53;;;;;;;15.32;10.23;;;;;;;12.67;78.95;99242.81;5031035;28;20021;-72
2021/09/02 05:26:19;;;;;;;14.65;10.02;;;;;;;12.70;78.77;99239.47;5029730;28;20040;-72
2021/09/02 05:28:44;;;;;;;15.30;10.60;;;;;;;12.75;78.99;99246.84;5029524;28;20026;-73
2021/09/02 05:31:10;;;;;;;16.95;10.40;;;;;;;12.85;78.99;99241.25;5012176;28;20445;-72
2021/09/02 05:33:35;;;;;;;15.38;10.65;;;;;;;12.93;79.10;99240.59;5030891;28;20053;-73
2021/09/02 05:36:01;;;;;;;16.63;10.98;;;;;;;12.97;78.53;99232.56;5030980;28;20021;-73
2021/09/02 05:38:26;;;;;;;16.42;10.73;;;;;;;13.04;78.88;99233.03;5012365;28;20460;-73
2021/09/02 05:40:52;;;;;;;16.63;10.93;;;;;;;13.12;78.78;99239.03;5028945;28;20686;-73
2021/09/02 05:43:18;;;;;;;16.48;10.60;;;;;;;13.14;78.70;99243.09;5027594;28;20116;-73
2021/09/02 05:45:43;;;;;;;15.77;10.77;;;;;;;13.20;78.45;99254.91;5029875;28;20494;-72
2021/09/02 05:48:09;;;;;;;27.65;15.27;;;;;;;13.23;78.01;99248.81;5029483;28;20132;-73
2021/09/02 05:50:34;;;;;;;31.60;18.73;;;;;;;13.27;78.52;99252.59;5012442;28;20475;-73
2021/09/02 05:53:00;;;;;;;51.10;38.03;;;;;;;13.29;78.16;99260.56;5029581;28;20053;-72
2021/09/02 05:55:25;;;;;;;25.38;15.50;;;;;;;13.28;78.06;99256.97;5029171;28;20032;-73
2021/09/02 05:57:50;;;;;;;18.33;11.68;;;;;;;13.33;77.92;99250.59;5028945;28;20029;-72
2021/09/02 06:00:17;;;;;;;16.17;10.80;;;;;;;13.37;78.09;99257.16;5028892;28;20037;-72
2021/09/02 06:02:42;;;;;;;17.98;11.77;;;;;;;13.35;77.86;99260.19;5029980;28;20481;-73
2021/09/02 06:05:08;;;;;;;15.98;11.02;;;;;;;13.36;77.70;99261.84;5031293;28;20052;-73
2021/09/02 06:07:33;;;;;;;17.48;11.52;;;;;;;13.38;77.69;99256.84;5030438;28;20371;-73
2021/09/02 06:09:59;;;;;;;18.83;11.50;;;;;;;13.44;77.64;99257.66;5030602;28;20044;-73
2021/09/02 06:12:24;;;;;;;20.00;12.45;;;;;;;13.48;77.67;99266.16;5031239;28;20029;-73
2021/09/02 06:14:50;;;;;;;32.72;19.73;;;;;;;13.54;77.35;99265.78;5009966;28;20075;-73
2021/09/02 06:17:15;;;;;;;17.05;11.95;;;;;;;13.60;77.90;99263.78;5029217;28;20045;-72
2021/09/02 06:19:41;;;;;;;17.75;12.77;;;;;;;13.70;77.19;99271.09;5012032;28;20026;-73
2021/09/02 06:22:06;;;;;;;16.83;11.23;;;;;;;13.79;77.06;99268.47;5030809;28;20040;-73
2021/09/02 06:24:32;;;;;;;17.33;11.30;;;;;;;13.85;76.80;99281.06;5012778;28;20507;-72
2021/09/02 06:26:57;;;;;;;15.32;10.88;;;;;;;13.92;76.80;99277.94;5029845;28;20036;-73
2021/09/02 06:29:22;;;;;;;17.20;10.50;;;;;;;13.95;76.33;99277.34;5030954;28;20032;-73
2021/09/02 06:31:48;;;;;;;12.20;8.57;;;;;;;13.97;75.87;99275.09;5030502;28;20529;-73
2021/09/02 06:34:13;;;;;;;12.88;10.15;;;;;;;14.01;76.35;99280.84;5027343;28;20047;-71
2021/09/02 06:36:39;;;;;;;16.40;10.32;;;;;;;14.12;76.56;99268.53;5012436;28;20025;-72
2021/09/02 06:39:04;;;;;;;15.15;10.57;;;;;;;14.23;76.27;99274.72;5030144;28;20108;-71
2021/09/02 06:41:30;;;;;;;16.08;11.35;;;;;;;14.33;76.19;99280.06;5011221;28;20367;-73
2021/09/02 06:43:55;;;;;;;16.13;9.95;;;;;;;14.41;75.85;99271.09;5023266;28;20025;-72
2021/09/02 06:46:21;;;;;;;13.55;9.40;;;;;;;14.50;75.46;99278.69;5030076;28;20021;-72
2021/09/02 06:48:46;;;;;;;13.00;10.07;;;;;;;14.54;75.55;99277.78;5027861;28;20497;-72
2021/09/02 06:51:11;;;;;;;12.80;9.80;;;;;;;14.55;75.46;99284.13;5028047;28;20026;-71
2021/09/02 06:53:37;;;;;;;11.27;9.13;;;;;;;14.52;75.29;99285.53;5029343;28;20029;-72
2021/09/02 06:56:02;;;;;;;14.02;10.43;;;;;;;14.47;75.28;99287.56;5029844;28;20079;-72
2021/09/02 06:58:28;;;;;;;12.43;9.88;;;;;;;14.43;74.64;99293.69;5028832;28;20022;-71
2021/09/02 07:00:53;;;;;;;13.80;8.88;;;;;;;14.41;74.66;99295.94;5028788;28;20125;-72
2021/09/02 07:03:18;;;;;;;12.13;8.82;;;;;;;14.49;74.91;99299.94;5028445;28;20033;-72
2021/09/02 07:05:44;;;;;;;18.90;12.15;;;;;;;14.58;74.83;99294.56;5028461;28;20498;-72
2021/09/02 07:08:09;;;;;;;11.52;9.00;;;;;;;14.66;75.24;99301.31;5027452;28;20394;-73
2021/09/02 07:10:36;;;;;;;11.32;8.50;;;;;;;14.69;75.24;99309.84;5023514;28;20068;-72
2021/09/02 07:13:01;;;;;;;14.73;9.35;;;;;;;14.71;74.49;99306.78;5008135;28;20037;-73
2021/09/02 07:15:26;;;;;;;10.57;8.30;;;;;;;14.81;74.22;99308.53;5024736;28;20041;-73
2021/09/02 07:17:52;;;;;;;12.75;9.52;;;;;;;14.99;74.16;99315.13;5008305;28;20022;-72
2021/09/02 07:20:17;;;;;;;14.10;8.60;;;;;;;15.14;74.57;99314.00;5024599;28;20026;-73
2021/09/02 07:22:43;;;;;;;11.18;8.00;;;;;;;15.20;74.18;99326.59;5005719;28;20029;-73
2021/09/02 07:25:08;;;;;;;12.80;8.63;;;;;;;15.26;73.74;99322.63;5024531;28;20072;-73
2021/09/02 07:27:34;;;;;;;10.50;8.02;;;;;;;15.37;73.94;99325.19;5022639;28;20048;-73
2021/09/02 07:29:59;;;;;;;14.95;10.18;;;;;;;15.44;73.48;99329.16;5008028;28;20437;-73
2021/09/02 07:32:26;;;;;;;10.85;7.40;;;;;;;15.47;73.21;99339.63;5026117;28;20021;-73
2021/09/02 07:34:51;;;;;;;12.80;10.15;;;;;;;15.50;73.09;99326.31;5028238;28;20026;-73
2021/09/02 07:37:17;;;;;;;11.52;8.40;;;;;;;15.49;73.09;99342.06;5026895;28;20428;-73
2021/09/02 07:39:43;;;;;;;11.48;8.43;;;;;;;15.44;72.31;99343.00;5026770;28;20032;-73
2021/09/02 07:42:08;;;;;;;13.32;9.75;;;;;;;15.56;72.65;99341.66;5026497;28;20037;-73
2021/09/02 07:44:34;;;;;;;10.07;7.75;;;;;;;15.64;72.44;99338.19;5026217;28;20100;-72
2021/09/02 07:46:59;;;;;;;13.23;11.18;;;;;;;15.66;72.16;99344.22;5025756;28;20091;-73
2021/09/02 07:49:25;;;;;;;12.32;8.45;;;;;;;15.67;72.33;99351.41;5028741;28;20037;-74
2021/09/02 07:51:50;;;;;;;11.50;7.85;;;;;;;15.80;72.34;99352.50;5027803;28;20136;-74
2021/09/02 07:54:15;;;;;;;9.60;7.55;;;;;;;15.97;71.90;99353.81;5030640;28;20021;-73
2021/09/02 07:56:41;;;;;;;10.85;7.55;;;;;;;16.01;71.33;99357.59;5030574;28;20072;-72
2021/09/02 07:59:07;;;;;;;10.90;7.85;;;;;;;16.07;71.84;99348.91;5029235;28;20060;-73
2021/09/02 08:01:33;;;;;;;11.05;7.35;;;;;;;16.20;71.99;99357.47;5029172;28;20288;-72
2021/09/02 08:03:58;;;;;;;14.18;8.27;;;;;;;16.33;71.17;99361.31;5029371;28;20043;-73
2021/09/02 08:06:23;;;;;;;12.48;8.57;;;;;;;16.38;71.34;99352.91;5029793;28;20514;-73
2021/09/02 08:08:49;;;;;;;7.85;6.22;;;;;;;16.45;70.88;99361.59;5029466;28;20048;-73
2021/09/02 08:11:14;;;;;;;9.27;7.18;;;;;;;16.47;70.78;99358.53;5029513;28;20120;-73
2021/09/02 08:13:40;;;;;;;12.43;10.27;;;;;;;16.50;70.91;99364.25;5029775;28;20033;-72
2021/09/02 08:16:06;;;;;;;10.88;7.15;;;;;;;16.41;70.91;99359.78;5030067;28;20057;-72
2021/09/02 08:18:31;;;;;;;8.88;6.22;;;;;;;16.49;70.22;99356.25;5012188;28;20044;-75
2021/09/02 08:20:56;;;;;;;10.52;7.60;;;;;;;16.52;70.12;99356.44;5030755;28;20109;-72
2021/09/02 08:23:23;;;;;;;12.38;8.07;;;;;;;16.63;70.37;99359.75;5029837;28;20480;-73
2021/09/02 08:25:49;;;;;;;12.98;7.95;;;;;;;16.78;70.32;99360.53;5030907;28;20079;-73
2021/09/02 08:28:15;;;;;;;8.73;6.75;;;;;;;16.84;70.75;99358.44;5013145;28;20794;-73
2021/09/02 08:30:41;;;;;;;12.98;7.60;;;;;;;16.83;70.33;99363.16;5013004;28;20378;-73
2021/09/02 08:33:06;;;;;;;8.75;7.13;;;;;;;16.87;70.01;99363.34;5030936;28;20029;-73
2021/09/02 08:35:33;;;;;;;10.05;6.93;;;;;;;16.84;69.34;99362.03;5030656;28;20539;-73
2021/09/02 08:38:01;;;;;;;7.30;5.40;;;;;;;16.70;68.27;99366.81;5030642;28;20033;-73
2021/09/02 08:40:32;;;;;;;6.15;4.90;;;;;;;16.66;68.18;99352.78;5030559;28;20034;-74
2021/09/02 08:42:59;;;;;;;8.10;5.25;;;;;;;16.80;68.43;99361.84;5012614;28;20120;-73
2021/09/02 08:45:26;;;;;;;6.70;5.13;;;;;;;17.02;66.92;99365.75;5028472;28;20133;-72
2021/09/02 08:47:52;;;;;;;5.88;4.32;;;;;;;17.13;67.01;99359.94;5029724;28;20045;-73
2021/09/02 08:50:34;;;;;;;7.55;4.80;;;;;;;17.21;67.69;99365.53;5028930;28;20409;-73
2021/09/02 08:53:00;;;;;;;6.50;3.95;;;;;;;17.31;67.44;99356.13;5030629;28;20037;-72
2021/09/02 08:55:26;;;;;;;6.38;4.72;;;;;;;17.30;67.42;99367.53;5028892;28;20108;-72
2021/09/02 08:57:53;;;;;;;7.00;4.32;;;;;;;17.26;66.18;99362.63;5029017;28;20067;-73
2021/09/02 09:00:20;;;;;;;6.95;4.43;;;;;;;17.28;66.08;99361.50;5027511;28;20393;-71
2021/09/02 09:02:49;;;;;;;16.65;11.38;;;;;;;17.34;65.44;99355.47;5029389;28;20029;-73
2021/09/02 09:05:16;;;;;;;6.70;4.28;;;;;;;17.34;64.70;99357.41;5029183;28;20082;-73
2021/09/02 09:07:49;;;;;;;6.40;4.50;;;;;;;17.44;64.65;99361.88;5012575;28;20025;-72
2021/09/02 09:10:23;;;;;;;4.30;3.40;;;;;;;17.61;62.38;99353.59;5028725;28;20029;-71
2021/09/02 09:12:56;;;;;;;5.40;3.22;;;;;;;17.59;62.00;99349.53;5029364;28;20025;-72
2021/09/02 09:15:30;;;;;;;11.23;8.23;;;;;;;17.53;62.25;99354.41;5028150;28;20571;-73
2021/09/02 09:18:12;;;;;;;12.52;8.13;;;;;;;17.41;63.16;99349.47;5009683;28;20104;-72
2021/09/02 09:20:37;;;;;;;11.68;8.00;;;;;;;17.36;63.32;99352.38;5027791;28;20060;-72
2021/09/02 09:23:03;;;;;;;11.75;8.27;;;;;;;17.44;63.81;99345.25;5009075;28;20506;-73
2021/09/02 09:25:29;;;;;;;9.65;6.22;;;;;;;17.55;64.21;99339.09;5026499;28;20037;-73
2021/09/02 09:27:58;;;;;;;9.57;5.63;;;;;;;17.59;63.00;99339.25;5011427;28;20035;-72
2021/09/02 09:30:25;;;;;;;4.47;3.38;;;;;;;17.60;62.14;99340.09;5027540;28;20028;-73
2021/09/02 09:32:56;;;;;;;5.28;3.92;;;;;;;17.60;62.49;99351.97;5027647;28;20076;-73
2021/09/02 09:35:24;;;;;;;4.15;3.22;;;;;;;17.65;61.63;99342.72;5027341;28;20060;-73
2021/09/02 09:38:04;;;;;;;6.47;4.35;;;;;;;17.80;60.55;99353.34;5004158;28;20033;-74
2021/09/02 09:40:29;;;;;;;7.43;4.50;;;;;;;18.00;60.82;99346.38;5027986;28;20037;-75
2021/09/02 09:43:09;;;;;;;7.93;5.38;;;;;;;18.19;61.11;99350.81;5027856;28;20087;-74
2021/09/02 09:45:41;;;;;;;5.68;4.30;;;;;;;18.23;58.72;99348.19;5029046;28;20068;-74
2021/09/02 09:48:31;;;;;;;5.85;3.97;;;;;;;18.15;60.08;99355.41;5027340;28;20153;-74
2021/09/02 09:51:08;;;;;;;7.40;4.80;;;;;;;18.17;59.38;99355.88;5028503;28;20560;-73
2021/09/02 09:53:35;;;;;;;7.90;5.57;;;;;;;18.33;58.54;99360.97;5028271;28;20029;-71
2021/09/02 09:56:00;;;;;;;8.25;6.50;;;;;;;18.48;59.34;99349.34;5011433;28;20036;-71
2021/09/02 09:58:27;;;;;;;6.95;4.90;;;;;;;18.38;58.28;99358.84;5009552;28;20049;-72
2021/09/02 10:00:55;;;;;;;4.88;3.38;;;;;;;18.28;57.96;99359.16;5027553;28;20028;-72
2021/09/02 10:03:21;;;;;;;4.82;3.40;;;;;;;18.35;57.13;99358.66;5028040;28;20025;-70
2021/09/02 10:05:51;;;;;;;5.78;3.90;;;;;;;18.56;57.38;99367.97;5028960;28;20025;-70
2021/09/02 10:08:18;;;;;;;4.40;3.47;;;;;;;18.63;56.90;99355.56;5028169;28;20087;-71
2021/09/02 10:10:44;;;;;;;5.05;3.80;;;;;;;18.55;57.52;99362.75;5026535;28;20120;-70
2021/09/02 10:13:11;;;;;;;7.13;4.50;;;;;;;18.48;55.81;99371.56;5026803;28;20029;-72
2021/09/02 10:15:36;;;;;;;9.68;6.18;;;;;;;18.44;56.09;99371.41;5005093;28;20763;-72
2021/09/02 10:18:03;;;;;;;8.68;4.60;;;;;;;18.57;56.41;99375.16;5008474;28;20041;-72
2021/09/02 10:20:33;;;;;;;6.30;4.10;;;;;;;18.75;56.66;99380.69;5007651;28;20041;-72
2021/09/02 10:23:01;;;;;;;6.30;4.70;;;;;;;18.85;56.74;99379.56;5010022;28;20308;-73
2021/09/02 10:25:29;;;;;;;5.50;4.20;;;;;;;18.86;56.17;99378.41;5008213;28;20033;-74
2021/09/02 10:27:58;;;;;;;5.45;3.75;;;;;;;18.70;54.92;99373.34;5007617;28;20061;-69
2021/09/02 10:30:24;;;;;;;7.75;4.22;;;;;;;18.69;54.75;99373.69;5007141;28;20083;-71
2021/09/02 10:32:50;;;;;;;7.40;4.43;;;;;;;18.77;55.71;99369.28;5006610;28;20116;-71
2021/09/02 10:35:15;;;;;;;9.23;7.00;;;;;;;18.94;55.43;99372.03;5006336;28;20026;-73
2021/09/02 10:37:43;;;;;;;6.40;4.70;;;;;;;18.98;54.63;99373.00;5008661;28;20026;-74
2021/09/02 10:40:34;;;;;;;5.03;3.60;;;;;;;18.88;54.20;99365.81;5007559;28;20033;-75
2021/09/02 10:42:59;;;;;;;4.93;3.28;;;;;;;18.83;54.32;99379.88;5006404;28;20018;-75
2021/09/02 10:45:25;;;;;;;4.85;3.80;;;;;;;18.87;54.56;99378.06;5007072;28;20034;-76
2021/09/02 10:47:51;;;;;;;6.18;3.60;;;;;;;19.08;54.41;99379.38;5007294;28;20044;-76
2021/09/02 10:50:21;;;;;;;6.65;4.28;;;;;;;19.18;55.58;99376.25;5008594;28;20482;-77
2021/09/02 10:52:46;;;;;;;13.95;10.77;;;;;;;19.27;55.12;99374.25;5008342;28;20169;-77
2021/09/02 10:55:27;;;;;;;18.95;8.32;;;;;;;19.24;54.50;99377.69;5008688;28;20113;-75
2021/09/02 10:57:53;;;;;;;5.05;3.28;;;;;;;19.25;53.92;99367.38;5007393;28;20538;-74
2021/09/02 11:00:38;;;;;;;6.60;4.43;;;;;;;19.52;54.46;99376.47;5009018;28;20126;-74
2021/09/02 11:03:23;;;;;;;12.05;5.40;;;;;;;19.64;54.46;99370.97;5007755;28;20026;-74
2021/09/02 11:05:56;;;;;;;3.92;3.13;;;;;;;19.67;54.44;99375.88;5009114;28;20041;-75
2021/09/02 11:08:30;;;;;;;4.25;2.88;;;;;;;19.60;53.97;99383.94;5008585;28;20033;-74
2021/09/02 11:11:22;;;;;;;6.28;3.25;;;;;;;19.70;53.85;99374.41;5009439;28;20442;-74
2021/09/02 11:13:53;;;;;;;3.90;2.75;;;;;;;19.89;53.53;99376.78;5007795;28;20069;-74
2021/09/02 11:16:23;;;;;;;7.07;4.75;;;;;;;19.88;52.20;99370.41;5021017;28;20045;-74
2021/09/02 11:18:52;;;;;;;9.23;6.57;;;;;;;19.78;52.19;99368.78;5029783;28;20485;-76
2021/09/02 11:21:20;;;;;;;7.47;4.85;;;;;;;19.71;51.94;99379.63;5028771;28;20042;-75